Time;durP1;ratioP1;P1;durP2;ratioP2;P2;SDS_P1;SDS_P2;PMS_P1;PMS_P2;Temp;Humidity;BMP_temperature;BMP_pressure;BME280_temperature;BME280_humidity;BME280_pressure;Samples;Min_cycle;Max_cycle;Signal;HPM_P1;HPM_P2
2023/08/25 00:00:57;;;;;;;11.68;10.48;;;23.90;99.90;;;;;;5094283;28;20182;-79
2023/08/25 00:03:23;;;;;;;11.73;10.40;;;23.90;99.90;;;;;;5094039;28;20195;-78
2023/08/25 00:05:53;;;;;;;11.68;10.50;;;24.00;99.90;;;;;;5094317;28;20171;-77
2023/08/25 00:08:19;;;;;;;11.43;10.32;;;23.90;99.90;;;;;;5094870;28;20198;-78
2023/08/25 00:10:45;;;;;;;10.82;9.85;;;23.90;99.90;;;;;;5095051;28;20178;-78
2023/08/25 00:13:12;;;;;;;11.10;10.00;;;23.80;99.90;;;;;;5102467;28;20185;-79
2023/08/25 00:15:40;;;;;;;11.07;10.07;;;23.90;99.90;;;;;;5104389;28;20219;-77
2023/08/25 00:18:06;;;;;;;11.23;10.07;;;23.90;99.90;;;;;;5096530;28;20183;-77
2023/08/25 00:20:31;;;;;;;11.07;10.00;;;23.90;99.90;;;;;;5095271;28;20385;-79
2023/08/25 00:22:57;;;;;;;10.93;10.00;;;23.90;99.90;;;;;;5095636;28;20584;-75
2023/08/25 00:25:23;;;;;;;13.65;10.25;;;23.90;99.90;;;;;;5093930;28;20178;-78
2023/08/25 00:27:49;;;;;;;11.85;10.68;;;23.90;99.90;;;;;;5093248;28;20301;-78
2023/08/25 00:30:15;;;;;;;10.70;9.75;;;23.80;99.90;;;;;;5093702;28;20186;-77
2023/08/25 00:32:40;;;;;;;11.75;10.65;;;23.80;99.90;;;;;;5095021;28;20186;-76
2023/08/25 00:35:07;;;;;;;11.30;10.30;;;23.80;99.90;;;;;;5097626;28;20666;-77
2023/08/25 00:37:33;;;;;;;11.48;10.48;;;23.70;99.90;;;;;;5096028;28;20664;-77
2023/08/25 00:39:59;;;;;;;13.15;11.75;;;23.60;99.90;;;;;;5097102;28;20186;-77
2023/08/25 00:42:25;;;;;;;14.32;11.82;;;23.70;99.90;;;;;;5120229;28;20175;-81
2023/08/25 00:44:51;;;;;;;13.65;12.25;;;23.80;99.90;;;;;;5105310;28;20191;-78
2023/08/25 00:47:17;;;;;;;12.80;11.60;;;23.90;99.90;;;;;;5097636;28;20229;-80
2023/08/25 00:49:43;;;;;;;12.73;11.63;;;23.90;99.90;;;;;;5097852;28;20170;-78
2023/08/25 00:52:10;;;;;;;12.40;10.85;;;24.00;99.90;;;;;;5097489;28;20167;-79
2023/08/25 00:54:37;;;;;;;11.95;10.75;;;24.10;99.90;;;;;;5097218;28;20174;-76
2023/08/25 00:57:03;;;;;;;11.45;10.35;;;24.10;99.90;;;;;;5097171;28;20232;-78
2023/08/25 00:59:34;;;;;;;12.60;10.57;;;24.20;99.90;;;;;;5097190;28;20257;-77
2023/08/25 01:02:00;;;;;;;9.23;8.15;;;24.30;99.90;;;;;;5096986;28;20158;-80
2023/08/25 01:04:25;;;;;;;8.98;8.15;;;24.60;99.90;;;;;;5096991;28;20691;-75
2023/08/25 01:06:51;;;;;;;9.18;8.13;;;24.90;99.90;;;;;;5099014;28;20217;-77
2023/08/25 01:09:18;;;;;;;8.80;7.50;;;25.00;99.90;;;;;;5098186;28;20290;-79
2023/08/25 01:12:08;;;;;;;8.25;7.45;;;25.10;99.90;;;;;;5096994;28;20163;-76
2023/08/25 01:14:41;;;;;;;7.10;6.50;;;25.20;99.90;;;;;;5097178;28;20606;-78
2023/08/25 01:17:11;;;;;;;6.03;5.38;;;25.20;99.90;;;;;;5097140;28;20170;-79
2023/08/25 01:19:57;;;;;;;6.82;5.40;;;25.40;99.90;;;;;;5097615;28;20179;-76
2023/08/25 01:22:40;;;;;;;5.25;4.80;;;25.50;99.90;;;;;;5097330;28;20222;-77
2023/08/25 01:25:20;;;;;;;6.60;3.97;;;25.50;99.90;;;;;;5098729;28;20212;-77
2023/08/25 01:27:47;;;;;;;4.07;3.78;;;25.60;99.90;;;;;;5100083;28;20236;-77
2023/08/25 01:30:14;;;;;;;4.63;3.38;;;25.70;99.90;;;;;;5098139;28;20170;-77
2023/08/25 01:32:40;;;;;;;3.35;3.00;;;25.60;99.90;;;;;;5098009;28;20637;-75
2023/08/25 01:35:06;;;;;;;2.55;2.40;;;25.70;99.90;;;;;;5104396;28;20182;-78
2023/08/25 01:37:40;;;;;;;4.28;2.10;;;25.70;99.90;;;;;;5111716;28;20179;-77
2023/08/25 01:40:17;;;;;;;2.83;2.10;;;25.70;99.90;;;;;;5102190;28;20190;-78
2023/08/25 01:42:46;;;;;;;3.25;2.13;;;25.70;99.90;;;;;;5110726;28;20166;-79
2023/08/25 01:45:14;;;;;;;2.50;2.30;;;25.60;99.90;;;;;;5095625;28;20181;-77
2023/08/25 01:47:41;;;;;;;3.60;2.35;;;25.60;99.90;;;;;;5096061;28;20538;-76
2023/08/25 01:50:09;;;;;;;2.20;2.10;;;25.60;99.90;;;;;;5100601;28;20178;-78
2023/08/25 01:52:35;;;;;;;2.83;1.92;;;25.60;99.90;;;;;;5096923;28;20174;-78
2023/08/25 01:55:02;;;;;;;2.42;1.85;;;25.50;99.90;;;;;;5096585;28;20707;-77
2023/08/25 01:57:28;;;;;;;2.35;2.15;;;25.50;99.90;;;;;;5096199;28;20186;-78
2023/08/25 01:59:54;;;;;;;2.30;2.10;;;25.50;99.90;;;;;;5101740;28;20177;-77
2023/08/25 02:02:20;;;;;;;2.05;1.95;;;25.50;99.90;;;;;;5106872;28;20693;-76
2023/08/25 02:04:45;;;;;;;2.95;2.22;;;25.50;99.90;;;;;;5095026;28;20194;-77
2023/08/25 02:07:11;;;;;;;3.85;2.60;;;25.40;99.90;;;;;;5096067;28;20661;-77
2023/08/25 02:09:37;;;;;;;3.75;1.77;;;25.30;99.90;;;;;;5095778;28;20667;-76
2023/08/25 02:12:03;;;;;;;3.70;1.60;;;25.30;99.90;;;;;;5095731;28;20573;-76
2023/08/25 02:14:29;;;;;;;2.17;1.30;;;25.30;99.90;;;;;;5095362;28;20179;-78
2023/08/25 02:16:54;;;;;;;3.05;1.67;;;25.30;99.90;;;;;;5095609;28;20232;-75
2023/08/25 02:19:20;;;;;;;1.55;1.45;;;25.30;99.90;;;;;;5095483;28;20178;-77
2023/08/25 02:21:46;;;;;;;1.40;1.30;;;25.20;99.90;;;;;;5094234;28;20307;-78
2023/08/25 02:24:12;;;;;;;2.33;1.75;;;25.20;99.90;;;;;;5096101;28;20167;-76
2023/08/25 02:26:38;;;;;;;2.38;1.83;;;25.20;99.90;;;;;;5095901;28;20206;-76
2023/08/25 02:29:05;;;;;;;1.42;1.35;;;25.20;99.90;;;;;;5096195;28;20186;-78
2023/08/25 02:31:31;;;;;;;2.13;1.50;;;25.30;99.90;;;;;;5096750;28;20167;-76
2023/08/25 02:33:57;;;;;;;3.20;1.48;;;25.30;99.90;;;;;;5107400;28;20196;-80
2023/08/25 02:36:23;;;;;;;1.67;1.33;;;25.30;99.90;;;;;;5110657;28;20495;-75
2023/08/25 02:38:48;;;;;;;1.65;1.15;;;25.30;99.90;;;;;;5093165;28;20194;-77
2023/08/25 02:41:14;;;;;;;2.80;1.75;;;25.30;99.90;;;;;;5093826;28;20193;-76
2023/08/25 02:43:40;;;;;;;4.88;1.55;;;25.20;99.90;;;;;;5094580;28;20186;-76
2023/08/25 02:46:06;;;;;;;1.17;1.17;;;25.20;99.90;;;;;;5095332;28;20182;-78
2023/08/25 02:48:31;;;;;;;1.40;1.30;;;25.20;99.90;;;;;;5094953;28;20213;-77
2023/08/25 02:50:57;;;;;;;1.60;1.50;;;25.20;99.90;;;;;;5094600;28;20181;-78
2023/08/25 02:53:23;;;;;;;1.35;1.30;;;25.20;99.90;;;;;;5095205;28;20225;-75
2023/08/25 02:55:49;;;;;;;1.77;1.67;;;25.10;99.90;;;;;;5094826;28;20258;-79
2023/08/25 02:58:14;;;;;;;3.90;1.80;;;25.10;99.90;;;;;;5094956;28;20651;-78
2023/08/25 03:00:40;;;;;;;2.70;1.80;;;25.00;99.90;;;;;;5105534;28;20648;-75
2023/08/25 03:03:06;;;;;;;2.40;1.73;;;24.90;99.90;;;;;;5094585;28;20182;-77
2023/08/25 03:05:32;;;;;;;4.63;1.40;;;24.80;99.90;;;;;;5093182;28;20636;-78
2023/08/25 03:07:57;;;;;;;2.42;1.90;;;24.80;99.90;;;;;;5094561;28;20813;-77
2023/08/25 03:10:23;;;;;;;1.90;1.45;;;24.80;99.90;;;;;;5094428;28;20175;-78
2023/08/25 03:12:49;;;;;;;3.10;1.73;;;24.70;99.90;;;;;;5094685;28;20541;-78
2023/08/25 03:15:15;;;;;;;1.52;1.20;;;24.70;99.90;;;;;;5111184;28;20231;-78
2023/08/25 03:17:41;;;;;;;1.88;1.70;;;24.70;99.90;;;;;;5108162;28;20234;-78
2023/08/25 03:20:08;;;;;;;2.15;1.90;;;24.60;99.90;;;;;;5093306;28;20269;-78
2023/08/25 03:22:33;;;;;;;2.47;2.20;;;24.50;99.90;;;;;;5096020;28;20290;-79
2023/08/25 03:24:59;;;;;;;1.95;1.80;;;24.50;99.90;;;;;;5099021;28;20650;-78
2023/08/25 03:27:25;;;;;;;2.30;1.77;;;24.40;99.90;;;;;;5100196;28;20201;-77
2023/08/25 03:29:51;;;;;;;1.67;1.50;;;24.40;99.90;;;;;;5116009;28;20261;-78
2023/08/25 03:32:16;;;;;;;4.93;2.15;;;24.40;99.90;;;;;;5099300;28;20486;-79
2023/08/25 03:34:42;;;;;;;2.28;2.17;;;24.30;99.90;;;;;;5093970;28;20175;-78
2023/08/25 03:37:08;;;;;;;1.95;1.75;;;24.20;99.90;;;;;;5094094;28;20189;-77
2023/08/25 03:39:34;;;;;;;4.22;2.00;;;24.20;99.90;;;;;;5111662;28;20189;-78
2023/08/25 03:42:00;;;;;;;7.53;1.85;;;24.20;99.90;;;;;;5114479;28;20177;-79
2023/08/25 03:44:25;;;;;;;3.45;1.90;;;24.20;99.90;;;;;;5114636;28;20181;-79
2023/08/25 03:46:51;;;;;;;2.67;1.70;;;24.20;99.90;;;;;;5114826;28;20757;-77
2023/08/25 03:49:17;;;;;;;3.67;1.80;;;24.10;99.90;;;;;;5128348;28;20235;-77
2023/08/25 03:51:43;;;;;;;2.92;1.90;;;24.10;99.90;;;;;;5115661;28;20209;-74
2023/08/25 03:54:10;;;;;;;2.15;1.65;;;24.10;99.90;;;;;;5114372;28;20242;-77
2023/08/25 03:56:36;;;;;;;2.03;1.90;;;24.00;99.90;;;;;;5113922;28;20174;-79
2023/08/25 03:59:01;;;;;;;2.03;1.77;;;24.00;99.90;;;;;;5113953;28;20178;-78
2023/08/25 04:01:27;;;;;;;2.10;1.90;;;24.00;99.90;;;;;;5113810;28;20645;-79
2023/08/25 04:03:53;;;;;;;3.28;2.10;;;23.90;99.90;;;;;;5113758;28;20174;-77
2023/08/25 04:06:19;;;;;;;3.50;2.28;;;23.90;99.90;;;;;;5115429;28;20169;-78
2023/08/25 04:08:44;;;;;;;2.97;2.60;;;23.90;99.90;;;;;;5111547;28;20250;-75
2023/08/25 04:11:10;;;;;;;5.18;2.70;;;23.90;99.90;;;;;;5113289;28;20170;-77
2023/08/25 04:13:36;;;;;;;4.45;2.92;;;23.80;99.90;;;;;;5113329;28;20274;-76
2023/08/25 04:16:02;;;;;;;3.30;3.10;;;23.70;99.90;;;;;;5114012;28;20205;-77
2023/08/25 04:18:29;;;;;;;6.97;6.38;;;23.70;99.90;;;;;;5114001;28;20652;-77
2023/08/25 04:20:55;;;;;;;5.90;5.38;;;23.70;99.90;;;;;;5114872;28;20174;-74
2023/08/25 04:23:24;;;;;;;7.22;6.63;;;23.70;99.90;;;;;;5096640;28;20229;-76
2023/08/25 04:25:50;;;;;;;6.32;5.72;;;23.70;99.90;;;;;;5093529;28;20706;-76
2023/08/25 04:28:16;;;;;;;7.50;6.90;;;23.70;99.90;;;;;;5112490;28;20201;-75
2023/08/25 04:30:42;;;;;;;9.10;8.17;;;23.80;99.90;;;;;;5104346;28;20549;-78
2023/08/25 04:33:08;;;;;;;9.43;7.50;;;23.70;99.90;;;;;;5093876;28;20182;-77
2023/08/25 04:35:36;;;;;;;8.43;7.57;;;23.70;99.90;;;;;;5093364;28;20174;-78
2023/08/25 04:38:02;;;;;;;11.25;8.38;;;23.70;99.90;;;;;;5093351;28;20167;-78
2023/08/25 04:40:28;;;;;;;9.95;8.95;;;23.70;99.90;;;;;;5092780;28;20178;-77
2023/08/25 04:42:54;;;;;;;9.13;8.30;;;23.80;99.90;;;;;;5093057;28;20511;-78
2023/08/25 04:45:19;;;;;;;10.20;9.18;;;23.80;99.90;;;;;;5093491;28;20302;-78
2023/08/25 04:47:45;;;;;;;11.07;8.80;;;23.70;99.90;;;;;;5094031;28;20218;-77
2023/08/25 04:50:11;;;;;;;9.98;9.07;;;23.70;99.90;;;;;;5096399;28;20187;-78
2023/08/25 04:52:37;;;;;;;10.10;9.10;;;23.70;99.90;;;;;;5096532;28;20265;-75
2023/08/25 04:55:04;;;;;;;10.27;9.00;;;23.70;99.90;;;;;;5104785;28;20182;-75
2023/08/25 04:57:30;;;;;;;11.70;9.13;;;23.70;99.90;;;;;;5107952;28;20174;-78
2023/08/25 04:59:56;;;;;;;11.10;8.82;;;23.70;99.90;;;;;;5097285;28;20210;-77
2023/08/25 05:02:22;;;;;;;8.88;7.97;;;23.70;99.90;;;;;;5074819;28;20573;-78
2023/08/25 05:04:48;;;;;;;9.27;8.15;;;23.60;99.90;;;;;;5093326;28;20170;-79
2023/08/25 05:07:14;;;;;;;9.30;8.05;;;23.70;99.90;;;;;;5089978;28;20206;-77
2023/08/25 05:09:39;;;;;;;8.80;8.00;;;23.60;99.90;;;;;;5112331;28;20177;-78
2023/08/25 05:12:05;;;;;;;9.93;9.02;;;23.60;99.90;;;;;;5093066;28;20182;-76
2023/08/25 05:14:31;;;;;;;7.28;6.47;;;23.70;99.90;;;;;;5096301;28;20191;-77
2023/08/25 05:16:57;;;;;;;7.20;6.30;;;23.60;99.90;;;;;;5093306;28;20215;-79
2023/08/25 05:19:23;;;;;;;6.95;6.32;;;23.50;99.90;;;;;;5096061;28;20231;-80
2023/08/25 05:21:49;;;;;;;6.55;5.97;;;23.50;99.90;;;;;;5098574;28;20305;-79
2023/08/25 05:24:20;;;;;;;6.18;5.60;;;23.40;99.90;;;;;;5114276;28;20171;-77
2023/08/25 05:26:53;;;;;;;5.85;4.70;;;23.40;99.90;;;;;;5082188;28;20186;-78
2023/08/25 05:29:19;;;;;;;5.50;5.00;;;23.40;99.90;;;;;;5096649;28;20178;-76
2023/08/25 05:31:45;;;;;;;9.23;5.15;;;23.30;99.90;;;;;;5096346;28;20192;-79
2023/08/25 05:34:11;;;;;;;6.38;4.75;;;23.20;99.90;;;;;;5096704;28;20174;-77
2023/08/25 05:36:37;;;;;;;5.82;5.22;;;23.20;99.90;;;;;;5099425;28;20178;-80
2023/08/25 05:39:04;;;;;;;5.40;4.90;;;23.30;99.90;;;;;;5096586;28;20628;-79
2023/08/25 05:41:30;;;;;;;5.40;4.95;;;23.30;99.90;;;;;;5105053;28;20272;-77
2023/08/25 05:43:56;;;;;;;6.07;5.50;;;23.40;99.90;;;;;;5096358;28;20186;-77
2023/08/25 05:46:21;;;;;;;11.20;5.53;;;23.50;99.90;;;;;;5096304;28;20183;-77
2023/08/25 05:48:47;;;;;;;7.78;5.55;;;23.50;99.90;;;;;;5095906;28;20221;-78
2023/08/25 05:51:13;;;;;;;6.05;5.45;;;23.50;99.90;;;;;;5077655;28;20272;-76
2023/08/25 05:53:39;;;;;;;7.25;5.60;;;23.60;99.90;;;;;;5095877;28;20174;-78
2023/08/25 05:56:05;;;;;;;5.90;5.40;;;23.70;99.90;;;;;;5095752;28;20654;-75
2023/08/25 05:58:30;;;;;;;6.93;5.43;;;23.60;99.90;;;;;;5077620;28;20568;-77
2023/08/25 06:00:56;;;;;;;5.28;4.82;;;23.60;99.90;;;;;;5096028;28;20175;-76
2023/08/25 06:03:23;;;;;;;5.18;4.68;;;23.70;99.90;;;;;;5095879;28;20175;-76
2023/08/25 06:05:51;;;;;;;5.35;4.85;;;23.70;99.90;;;;;;5095839;28;20167;-76
2023/08/25 06:08:18;;;;;;;4.70;4.30;;;23.60;99.90;;;;;;5095391;28;20745;-81
2023/08/25 06:12:14;;;;;;;4.72;4.32;;;23.80;99.90;;;;;;5033679;27;2298793;-78
2023/08/25 06:14:40;;;;;;;4.55;3.85;;;23.80;99.90;;;;;;5090934;28;20198;-78
2023/08/25 06:17:06;;;;;;;4.43;4.03;;;23.90;99.90;;;;;;5090699;28;20208;-77
2023/08/25 06:19:32;;;;;;;3.58;3.33;;;23.90;99.90;;;;;;5072911;28;20189;-79
2023/08/25 06:21:58;;;;;;;3.65;3.35;;;23.90;99.90;;;;;;5073980;28;20177;-78
2023/08/25 06:24:25;;;;;;;3.60;2.95;;;24.00;99.90;;;;;;5101536;28;20174;-79
2023/08/25 06:26:52;;;;;;;5.03;3.22;;;24.10;99.90;;;;;;5091917;28;20162;-79
2023/08/25 06:29:18;;;;;;;6.45;3.38;;;24.20;99.90;;;;;;5090914;28;20223;-79
2023/08/25 06:31:44;;;;;;;5.53;3.17;;;24.20;99.90;;;;;;5091970;28;20277;-79
2023/08/25 06:34:09;;;;;;;3.17;2.92;;;24.30;99.90;;;;;;5098847;28;20171;-76
2023/08/25 06:36:35;;;;;;;2.97;2.72;;;24.30;99.90;;;;;;5106298;28;20294;-76
2023/08/25 06:39:01;;;;;;;5.45;2.53;;;24.30;99.90;;;;;;5090943;28;20174;-77
2023/08/25 06:41:27;;;;;;;2.30;2.20;;;24.20;99.90;;;;;;5072360;28;20232;-76
2023/08/25 06:43:53;;;;;;;3.05;2.53;;;24.20;99.90;;;;;;5090957;28;20198;-77
2023/08/25 06:46:19;;;;;;;3.03;2.72;;;24.30;99.90;;;;;;5090515;28;20178;-80
2023/08/25 06:48:45;;;;;;;3.05;2.30;;;24.30;99.90;;;;;;5090435;28;20171;-75
2023/08/25 06:51:11;;;;;;;3.95;2.78;;;24.40;99.90;;;;;;5090516;28;20616;-76
2023/08/25 06:53:37;;;;;;;3.40;2.47;;;24.40;99.90;;;;;;5090400;28;20250;-75
2023/08/25 06:56:03;;;;;;;2.55;2.20;;;24.40;99.90;;;;;;5090379;28;20175;-76
2023/08/25 06:58:29;;;;;;;2.40;2.30;;;24.40;99.90;;;;;;5094923;28;20202;-75
2023/08/25 07:00:54;;;;;;;2.85;2.40;;;24.40;99.90;;;;;;5083517;28;20178;-77
2023/08/25 07:03:20;;;;;;;6.32;2.83;;;24.50;99.90;;;;;;5098051;28;20174;-77
2023/08/25 07:05:46;;;;;;;3.47;2.85;;;24.60;99.90;;;;;;5093710;28;20186;-76
2023/08/25 07:08:12;;;;;;;2.60;2.35;;;24.80;99.90;;;;;;5091170;28;20174;-76
2023/08/25 07:10:38;;;;;;;2.88;2.20;;;24.80;99.90;;;;;;5089605;28;20684;-77
2023/08/25 07:13:04;;;;;;;3.58;3.00;;;25.00;99.90;;;;;;5089868;28;20167;-76
2023/08/25 07:15:30;;;;;;;3.92;2.50;;;25.10;99.90;;;;;;5089933;28;20185;-78
2023/08/25 07:17:56;;;;;;;4.55;2.53;;;25.20;99.90;;;;;;5091110;28;20798;-76
2023/08/25 07:20:21;;;;;;;2.95;2.55;;;25.30;99.90;;;;;;5096045;28;20177;-75
2023/08/25 07:22:49;;;;;;;3.10;2.55;;;25.40;99.90;;;;;;5063492;28;20186;-77
2023/08/25 07:25:15;;;;;;;6.40;2.45;;;25.60;99.90;;;;;;5080143;28;20250;-76
2023/08/25 07:27:41;;;;;;;2.97;2.67;;;25.80;99.90;;;;;;5062078;28;20207;-75
2023/08/25 07:30:07;;;;;;;2.80;2.60;;;25.90;99.90;;;;;;5076510;28;20206;-77
2023/08/25 07:32:33;;;;;;;2.40;2.30;;;26.10;99.90;;;;;;5090575;28;20172;-76
2023/08/25 07:34:59;;;;;;;2.72;2.33;;;26.20;99.90;;;;;;5082001;28;20518;-75
2023/08/25 07:37:25;;;;;;;2.67;2.47;;;26.20;99.90;;;;;;5075917;28;20206;-79
2023/08/25 07:39:52;;;;;;;4.18;2.75;;;26.40;99.90;;;;;;5075803;28;20254;-78
2023/08/25 07:42:19;;;;;;;2.90;2.78;;;26.30;99.90;;;;;;5075741;28;20175;-79
2023/08/25 07:44:46;;;;;;;2.92;2.60;;;26.20;99.90;;;;;;5075862;28;20163;-79
2023/08/25 07:47:12;;;;;;;3.38;3.05;;;26.40;99.90;;;;;;5075781;28;20698;-77
2023/08/25 07:49:37;;;;;;;3.28;3.05;;;26.50;99.90;;;;;;5075636;28;20175;-78
2023/08/25 07:52:03;;;;;;;7.20;3.25;;;26.70;99.90;;;;;;5075560;28;20708;-77
2023/08/25 07:54:29;;;;;;;5.65;3.55;;;26.70;99.90;;;;;;5075390;28;20170;-76
2023/08/25 07:56:55;;;;;;;4.63;3.88;;;26.80;99.90;;;;;;5057829;28;20179;-78
2023/08/25 07:59:22;;;;;;;7.28;4.28;;;26.70;99.90;;;;;;5057790;28;20175;-75
2023/08/25 08:01:50;;;;;;;6.53;3.80;;;26.90;99.90;;;;;;5075893;28;20283;-78
2023/08/25 08:04:16;;;;;;;4.30;3.90;;;27.00;99.90;;;;;;5076068;28;20178;-78
2023/08/25 08:06:41;;;;;;;4.15;3.80;;;27.20;99.90;;;;;;5057863;28;20178;-78
2023/08/25 08:09:07;;;;;;;6.50;4.22;;;27.20;99.90;;;;;;5076096;28;20168;-79
2023/08/25 08:11:34;;;;;;;5.07;4.57;;;27.20;99.90;;;;;;5076152;28;20309;-81
2023/08/25 08:14:00;;;;;;;4.38;4.07;;;27.20;99.90;;;;;;5081744;28;20168;-79
2023/08/25 08:16:26;;;;;;;5.20;4.53;;;27.30;99.90;;;;;;5099643;28;20183;-78
2023/08/25 08:18:52;;;;;;;5.03;4.63;;;27.40;99.90;;;;;;5077449;28;20179;-76
2023/08/25 08:21:18;;;;;;;4.63;4.22;;;27.40;99.90;;;;;;5077651;28;20175;-79
2023/08/25 08:23:44;;;;;;;4.57;4.25;;;27.30;99.90;;;;;;5075852;28;20174;-79
2023/08/25 08:26:10;;;;;;;8.10;4.68;;;27.30;99.90;;;;;;5078931;28;20179;-80
2023/08/25 08:28:36;;;;;;;5.10;4.60;;;27.30;99.90;;;;;;5082865;28;20167;-78
2023/08/25 08:31:05;;;;;;;5.28;4.78;;;27.30;99.90;;;;;;5075177;28;20258;-77
2023/08/25 08:33:34;;;;;;;5.50;5.15;;;27.30;99.90;;;;;;5074415;28;20553;-76
2023/08/25 08:36:00;;;;;;;5.30;4.80;;;27.30;99.90;;;;;;5074917;28;20646;-78
2023/08/25 08:38:26;;;;;;;6.13;5.13;;;27.30;99.90;;;;;;5074856;28;20179;-79
2023/08/25 08:40:52;;;;;;;5.65;5.00;;;27.40;99.90;;;;;;5074813;28;20257;-80
2023/08/25 08:43:19;;;;;;;5.53;5.07;;;27.40;99.90;;;;;;5074888;28;20182;-77
2023/08/25 08:45:51;;;;;;;12.25;5.28;;;27.40;99.90;;;;;;5074687;28;20713;-79
2023/08/25 08:48:19;;;;;;;7.78;5.70;;;27.40;99.90;;;;;;5074457;28;20246;-78
2023/08/25 08:50:46;;;;;;;5.95;5.45;;;27.40;99.90;;;;;;5074514;28;20294;-78
2023/08/25 08:53:13;;;;;;;5.70;5.10;;;27.50;99.90;;;;;;5056568;28;20700;-76
2023/08/25 08:55:39;;;;;;;6.55;5.55;;;27.60;99.90;;;;;;5056421;28;20186;-79
2023/08/25 08:58:05;;;;;;;6.18;5.68;;;27.70;99.90;;;;;;5074601;28;20210;-76
2023/08/25 09:00:32;;;;;;;6.95;6.03;;;27.80;99.90;;;;;;5056482;28;20182;-78
2023/08/25 09:03:00;;;;;;;6.03;5.15;;;27.80;99.90;;;;;;5074209;28;20166;-75
2023/08/25 09:05:27;;;;;;;5.45;4.93;;;27.80;99.90;;;;;;5074164;28;20173;-76
2023/08/25 09:07:59;;;;;;;5.75;5.18;;;27.90;99.90;;;;;;5073852;28;20531;-76
2023/08/25 09:10:26;;;;;;;6.35;5.70;;;27.90;99.90;;;;;;5073626;28;20222;-78
2023/08/25 09:12:52;;;;;;;6.35;5.55;;;27.90;99.90;;;;;;5074392;28;20190;-77
2023/08/25 09:15:31;;;;;;;6.22;5.70;;;28.00;99.90;;;;;;5077800;28;20167;-77
2023/08/25 09:18:06;;;;;;;6.75;6.15;;;27.90;99.90;;;;;;5074424;28;20217;-77
2023/08/25 09:20:33;;;;;;;7.07;6.38;;;28.00;99.90;;;;;;5076261;28;20515;-75
2023/08/25 09:23:02;;;;;;;6.78;6.15;;;28.10;99.90;;;;;;5060065;28;20661;-77
2023/08/25 09:25:28;;;;;;;7.15;6.50;;;28.20;99.90;;;;;;5078133;28;20201;-76
2023/08/25 09:28:01;;;;;;;6.20;5.57;;;28.30;99.90;;;;;;5074897;28;20199;-75
2023/08/25 09:30:39;;;;;;;6.90;6.30;;;28.40;99.90;;;;;;5073650;28;20218;-77
2023/08/25 09:33:13;;;;;;;6.70;6.10;;;28.40;99.90;;;;;;5073641;28;20169;-76
2023/08/25 09:35:40;;;;;;;8.25;6.40;;;28.40;99.90;;;;;;5073426;28;20186;-75
2023/08/25 09:38:06;;;;;;;8.13;6.10;;;28.50;99.90;;;;;;5073863;28;20205;-76
2023/08/25 09:40:32;;;;;;;7.15;6.53;;;28.40;99.90;;;;;;5074987;28;20181;-76
2023/08/25 09:42:59;;;;;;;7.30;6.75;;;28.40;99.90;;;;;;5079790;28;20175;-76
2023/08/25 09:45:28;;;;;;;7.07;6.47;;;28.40;99.90;;;;;;5075085;28;20163;-75
2023/08/25 09:48:05;;;;;;;6.55;5.95;;;28.20;99.90;;;;;;5073407;28;20175;-78
2023/08/25 09:50:38;;;;;;;8.07;7.20;;;28.30;99.90;;;;;;5073380;28;20642;-77
2023/08/25 09:53:06;;;;;;;6.93;6.32;;;28.40;99.90;;;;;;5079667;28;20167;-77
2023/08/25 09:55:35;;;;;;;7.00;6.40;;;28.40;99.90;;;;;;5081661;28;20167;-76
2023/08/25 09:58:01;;;;;;;6.20;5.78;;;28.50;99.90;;;;;;5093765;28;20166;-75
2023/08/25 10:00:28;;;;;;;7.18;6.25;;;28.50;99.90;;;;;;5096970;28;20618;-78
2023/08/25 10:02:55;;;;;;;7.25;6.55;;;28.50;99.90;;;;;;5093898;28;20199;-80
2023/08/25 10:05:21;;;;;;;7.43;6.72;;;28.40;99.90;;;;;;5059219;28;20661;-77
2023/08/25 10:07:48;;;;;;;7.20;6.70;;;28.30;99.90;;;;;;5080081;28;20171;-78
2023/08/25 10:10:14;;;;;;;8.95;7.30;;;28.40;99.90;;;;;;5097326;28;20179;-79
2023/08/25 10:12:41;;;;;;;9.38;6.82;;;28.40;99.90;;;;;;5075839;28;20657;-79
2023/08/25 10:15:09;;;;;;;7.15;6.28;;;28.40;99.90;;;;;;5073658;28;20250;-78
2023/08/25 10:17:36;;;;;;;7.68;6.60;;;28.50;99.90;;;;;;5055208;28;20537;-79
2023/08/25 10:20:07;;;;;;;7.13;6.50;;;28.40;99.90;;;;;;5054901;28;20181;-80
2023/08/25 10:22:34;;;;;;;7.70;7.00;;;28.60;99.90;;;;;;5073049;28;20175;-80
2023/08/25 10:25:03;;;;;;;7.75;7.05;;;28.50;99.90;;;;;;5055122;28;20175;-82
2023/08/25 10:27:30;;;;;;;7.85;6.63;;;28.60;99.90;;;;;;5068798;28;20222;-79
2023/08/25 10:29:58;;;;;;;7.45;6.75;;;28.60;99.90;;;;;;5055120;28;20175;-80
2023/08/25 10:32:23;;;;;;;8.13;6.10;;;28.70;99.90;;;;;;5071968;28;20199;-78
2023/08/25 10:34:53;;;;;;;7.70;6.95;;;28.70;99.90;;;;;;5072896;28;20209;-81
2023/08/25 10:37:25;;;;;;;6.60;6.00;;;28.70;99.90;;;;;;5054823;28;20193;-79
2023/08/25 10:40:06;;;;;;;8.63;6.13;;;28.70;99.90;;;;;;5072651;28;20503;-78
2023/08/25 10:42:34;;;;;;;8.02;6.70;;;28.60;99.90;;;;;;5072612;28;20166;-79
2023/08/25 10:45:10;;;;;;;6.95;6.30;;;28.70;99.90;;;;;;5072772;28;20172;-78
2023/08/25 10:47:46;;;;;;;8.27;6.40;;;28.80;99.90;;;;;;5072625;28;20642;-79
2023/08/25 10:50:13;;;;;;;8.27;6.65;;;28.80;99.90;;;;;;5072694;28;20163;-79
2023/08/25 10:52:46;;;;;;;7.13;6.40;;;28.90;99.90;;;;;;5073178;28;20232;-78
2023/08/25 10:55:32;;;;;;;7.63;6.97;;;29.00;99.90;;;;;;5072705;28;20176;-78
2023/08/25 10:58:02;;;;;;;7.38;6.80;;;29.10;99.90;;;;;;5075253;28;20174;-79
2023/08/25 11:00:38;;;;;;;6.85;6.22;;;29.10;99.90;;;;;;5068815;28;20526;-78
2023/08/25 11:03:04;;;;;;;7.60;6.50;;;29.10;99.90;;;;;;5076932;28;20189;-80
2023/08/25 11:05:43;;;;;;;6.88;6.20;;;29.10;99.90;;;;;;5076697;28;20231;-80
2023/08/25 11:08:26;;;;;;;11.02;7.10;;;29.00;99.90;;;;;;5076293;28;20665;-81
2023/08/25 11:11:12;;;;;;;7.05;6.35;;;29.10;99.90;;;;;;5076371;28;20273;-82
2023/08/25 11:13:42;;;;;;;8.80;7.72;;;29.20;99.90;;;;;;5082327;28;20167;-80
2023/08/25 11:16:13;;;;;;;7.00;6.40;;;29.20;99.90;;;;;;5101250;28;20174;-81
2023/08/25 11:18:40;;;;;;;6.70;6.18;;;29.20;99.90;;;;;;5083480;28;20164;-79
2023/08/25 11:21:06;;;;;;;7.18;6.50;;;29.20;99.90;;;;;;5099770;28;20182;-79
2023/08/25 11:23:42;;;;;;;7.55;6.90;;;29.30;99.90;;;;;;5097146;28;20201;-79
2023/08/25 11:26:09;;;;;;;7.65;6.95;;;29.90;99.90;;;;;;5099697;28;20154;-79
2023/08/25 11:28:36;;;;;;;11.80;7.53;;;29.40;99.90;;;;;;5100045;28;20198;-79
2023/08/25 11:31:03;;;;;;;7.38;6.53;;;29.50;99.90;;;;;;5098489;28;20233;-80
2023/08/25 11:33:31;;;;;;;7.75;7.07;;;29.50;99.90;;;;;;5099094;28;20147;-81
2023/08/25 11:35:57;;;;;;;10.30;6.75;;;29.50;99.90;;;;;;5080379;28;20214;-79
2023/08/25 11:38:23;;;;;;;7.60;6.90;;;29.50;99.90;;;;;;5089790;28;20171;-80
2023/08/25 11:40:53;;;;;;;8.52;7.47;;;29.40;99.90;;;;;;5099596;28;20174;-79
2023/08/25 11:43:18;;;;;;;8.73;7.55;;;29.50;99.90;;;;;;5089120;28;20227;-80
2023/08/25 11:45:45;;;;;;;7.78;6.97;;;29.50;99.90;;;;;;5089790;28;20205;-80
2023/08/25 11:48:13;;;;;;;9.07;8.23;;;29.60;99.90;;;;;;5089866;28;20163;-83
2023/08/25 11:50:40;;;;;;;7.85;7.10;;;29.60;99.90;;;;;;5069150;28;20206;-80
2023/08/25 11:53:07;;;;;;;38.40;27.77;;;29.60;99.90;;;;;;5080348;28;20198;-79
2023/08/25 11:55:33;;;;;;;22.05;18.88;;;29.70;99.90;;;;;;5084627;28;20191;-81
2023/08/25 11:58:04;;;;;;;9.82;8.93;;;29.70;99.90;;;;;;5081442;28;20510;-80
2023/08/25 12:00:38;;;;;;;9.40;8.40;;;29.70;99.90;;;;;;5075766;28;20470;-81
2023/08/25 12:03:05;;;;;;;7.68;6.93;;;29.80;99.90;;;;;;5087645;28;20189;-79
2023/08/25 12:05:33;;;;;;;8.48;6.85;;;29.80;99.90;;;;;;5094764;28;20186;-80
2023/08/25 12:08:00;;;;;;;8.25;7.05;;;29.80;99.90;;;;;;5059624;28;20176;-78
2023/08/25 12:10:26;;;;;;;7.85;7.05;;;29.80;99.90;;;;;;5076013;28;20226;-80
2023/08/25 12:12:55;;;;;;;7.57;6.55;;;29.80;99.90;;;;;;5076235;28;20156;-78
2023/08/25 12:15:20;;;;;;;8.40;7.13;;;29.80;99.90;;;;;;5076641;28;20167;-78
2023/08/25 12:17:49;;;;;;;8.10;6.75;;;29.70;99.90;;;;;;5076524;28;20660;-79
2023/08/25 12:20:17;;;;;;;7.82;6.95;;;29.90;99.90;;;;;;5058632;28;20547;-80
2023/08/25 12:22:51;;;;;;;7.28;6.63;;;29.90;99.90;;;;;;5076733;28;20171;-80
2023/08/25 12:25:16;;;;;;;6.88;6.30;;;29.90;99.90;;;;;;5077254;28;20173;-79
2023/08/25 12:27:42;;;;;;;7.88;7.28;;;30.00;99.90;;;;;;5076374;28;20178;-78
2023/08/25 12:30:09;;;;;;;8.48;6.85;;;30.00;99.90;;;;;;5076076;28;20209;-77
2023/08/25 12:32:34;;;;;;;7.95;7.20;;;30.00;99.90;;;;;;5075981;28;20167;-79
2023/08/25 12:35:00;;;;;;;6.50;5.90;;;30.00;99.90;;;;;;5075574;28;20163;-79
2023/08/25 12:37:28;;;;;;;9.18;7.90;;;30.10;99.90;;;;;;5074641;28;20604;-78
2023/08/25 12:39:54;;;;;;;9.32;7.60;;;30.10;99.90;;;;;;5074507;28;20160;-78
2023/08/25 12:42:19;;;;;;;9.70;8.13;;;30.10;99.90;;;;;;5077293;28;20220;-79
2023/08/25 12:44:45;;;;;;;7.63;6.93;;;30.20;99.90;;;;;;5074603;28;20202;-80
2023/08/25 12:47:11;;;;;;;7.95;7.35;;;30.20;99.90;;;;;;5074519;28;20171;-78